KNTD/NTD METAR and TAF weather

Enter ICAO airport designator
Station Type Date Time Source
KNTD METAR 2022/05/24 11:52 UTC NOAA

KNTD 241152Z AUTO VRB04KT 7SM OVC011 15/11 A2984 RMK AO2 SLP107 T01500106 10150 20150 55005 CHINO N VISNO N $


Station Type Date Time Source
KNTD Decoded METAR 2022/05/24 11:52 UTC NOAA

NAWCWPNS POINT MUGU, CA, CA, United States (KNTD) 34-07N 119-07W 2M
May 24, 2022 - 07:52 AM EDT / 2022.05.24 1152 UTC
Wind: Variable at 5 MPH (4 KT):0
Visibility: 7 mile(s):0
Sky conditions: overcast
Temperature: 59.0 F (15.0 C)
Dew Point: 51.1 F (10.6 C)
Relative Humidity: 74%
Pressure (altimeter): 29.84 in. Hg (1010 hPa)
Pressure tendency: 0.01 inches (0.5 hPa) lower than three hours ago
ob: KNTD 241152Z AUTO VRB04KT 7SM OVC011 15/11 A2984 RMK AO2 SLP107 T01500106 10150 20150 55005 CHINO N VISNO N
cycle: 12

Station Type Date Time Source
KNTD TAF 2022/05/24 07:59 UTC NOAA

TAF KNTD 2407/2507 VRB06KT 9999 BKN010 QNH2979INS
TEMPO 2407/2413 15009KT 4800 BR OVC002
FM241800 20009KT 9000 HZ BKN010 QNH2980INS
FM242100 24009KT 9999 FEW010 BKN018 QNH2975INS
FM250300 VRB06KT 9000 HZ BKN010 QNH2976INS T11/2413Z T19/2421Z FS30167

Example: see airport list